Time;durP1;ratioP1;P1;durP2;ratioP2;P2;SDS_P1;SDS_P2;PMS_P1;PMS_P2;Temp;Humidity;BMP_temperature;BMP_pressure;BME280_temperature;BME280_humidity;BME280_pressure;Samples;Min_cycle;Max_cycle;Signal;HPM_P1;HPM_P2
2023/04/24 00:00:40;;;;;;;0.90;0.80;;;;;;;;;;5051792;28;20141;-30
2023/04/24 00:03:07;;;;;;;0.80;0.80;;;19.50;70.80;;;;;;5051671;28;20094;-30
2023/04/24 00:05:34;;;;;;;1.15;0.80;;;;;;;;;;5051247;28;20488;-30
2023/04/24 00:08:01;;;;;;;1.00;0.90;;;20.10;72.00;;;;;;5051542;28;20055;-29
2023/04/24 00:10:30;;;;;;;1.00;0.90;;;19.80;71.00;;;;;;5051604;28;20063;-30
2023/04/24 00:12:57;;;;;;;1.02;0.93;;;;;;;;;;5051052;28;20052;-30
2023/04/24 00:15:24;;;;;;;0.80;0.80;;;19.30;71.30;;;;;;5051467;28;20045;-30
2023/04/24 00:17:51;;;;;;;1.20;1.00;;;;;;;;;;5051419;28;20045;-31
2023/04/24 00:20:18;;;;;;;1.55;1.00;;;19.40;70.90;;;;;;5051247;28;20099;-30
2023/04/24 00:22:45;;;;;;;1.20;1.00;;;19.90;67.60;;;;;;5056881;28;20490;-30
2023/04/24 00:25:12;;;;;;;0.98;0.88;;;;;;;;;;5071568;28;20053;-30
2023/04/24 00:27:40;;;;;;;0.82;0.82;;;19.50;52.40;;;;;;5055212;28;20055;-30
2023/04/24 00:30:08;;;;;;;0.80;0.80;;;19.40;52.30;;;;;;5051380;28;20049;-31
2023/04/24 00:32:34;;;;;;;0.80;0.80;;;18.30;70.80;;;;;;5050809;28;20049;-30
2023/04/24 00:35:01;;;;;;;0.80;0.80;;;19.70;56.70;;;;;;5054479;28;20076;-30
2023/04/24 00:37:28;;;;;;;1.40;1.10;;;19.60;71.10;;;;;;5054554;28;20053;-30
2023/04/24 00:39:55;;;;;;;0.77;0.77;;;19.50;71.50;;;;;;5055237;28;20051;-30
2023/04/24 00:42:21;;;;;;;0.70;0.70;;;19.60;57.70;;;;;;5054978;28;20457;-30
2023/04/24 00:44:49;;;;;;;1.08;0.80;;;19.10;71.20;;;;;;5055204;28;20052;-30
2023/04/24 00:47:16;;;;;;;1.30;0.98;;;19.10;70.80;;;;;;5054574;28;20055;-30
2023/04/24 00:49:43;;;;;;;0.73;0.70;;;19.90;71.80;;;;;;5055126;28;20420;-30
2023/04/24 00:52:10;;;;;;;1.33;0.73;;;;;;;;;;5055064;28;20053;-30
2023/04/24 00:54:37;;;;;;;0.80;0.80;;;19.70;71.20;;;;;;5054838;28;20386;-30
2023/04/24 00:57:04;;;;;;;0.70;0.70;;;;;;;;;;5054870;28;20150;-30
2023/04/24 00:59:31;;;;;;;0.63;0.63;;;;;;;;;;5055008;28;20076;-30
2023/04/24 01:01:59;;;;;;;0.70;0.70;;;20.20;52.80;;;;;;5054871;28;20047;-30
2023/04/24 01:04:27;;;;;;;0.90;0.80;;;;;;;;;;5054615;28;20045;-30
2023/04/24 01:06:53;;;;;;;0.70;0.70;;;19.30;71.80;;;;;;5054765;28;20045;-30
2023/04/24 01:09:20;;;;;;;1.05;0.90;;;;;;;;;;5054078;28;20493;-30
2023/04/24 01:11:47;;;;;;;0.68;0.68;;;;;;;;;;5054591;28;20045;-30
2023/04/24 01:14:14;;;;;;;0.95;0.80;;;;;;;;;;5053976;28;20045;-30
2023/04/24 01:16:41;;;;;;;0.65;0.65;;;18.90;71.20;;;;;;5054741;28;20053;-30
2023/04/24 01:19:09;;;;;;;0.68;0.68;;;19.00;70.80;;;;;;5054375;28;20049;-30
2023/04/24 01:21:37;;;;;;;0.60;0.60;;;18.50;70.70;;;;;;5054664;28;20056;-30
2023/04/24 01:24:06;;;;;;;0.50;0.50;;;18.00;70.40;;;;;;5070097;28;20132;-30
2023/04/24 01:26:32;;;;;;;0.60;0.60;;;19.90;71.50;;;;;;5074225;28;20055;-30
2023/04/24 01:28:59;;;;;;;0.82;0.75;;;20.00;57.30;;;;;;5074099;28;20478;-30
2023/04/24 01:31:26;;;;;;;0.70;0.70;;;19.40;71.20;;;;;;5074611;28;20127;-30
2023/04/24 01:33:52;;;;;;;1.30;0.60;;;18.90;71.00;;;;;;5073965;28;20459;-30
2023/04/24 01:36:19;;;;;;;0.60;0.60;;;;;;;;;;5065453;28;20055;-30
2023/04/24 01:38:46;;;;;;;0.80;0.77;;;;;;;;;;5054086;28;20124;-30
2023/04/24 01:41:14;;;;;;;0.60;0.60;;;19.20;52.40;;;;;;5053999;28;20071;-30
2023/04/24 01:43:41;;;;;;;0.60;0.60;;;;;;;;;;5053774;28;20135;-30
2023/04/24 01:46:08;;;;;;;0.60;0.60;;;19.00;71.90;;;;;;5053267;28;20055;-30
2023/04/24 01:48:36;;;;;;;1.20;0.70;;;;;;;;;;5053730;28;20139;-31
2023/04/24 01:51:02;;;;;;;0.57;0.57;;;19.40;71.20;;;;;;5053690;28;20045;-30
2023/04/24 01:53:29;;;;;;;0.50;0.50;;;19.30;71.30;;;;;;5053465;28;20044;-30
2023/04/24 01:55:56;;;;;;;0.60;0.60;;;18.70;56.20;;;;;;5053608;28;20045;-30
2023/04/24 01:58:24;;;;;;;0.60;0.60;;;19.10;71.20;;;;;;5053677;28;20404;-29
2023/04/24 02:00:51;;;;;;;0.90;0.65;;;19.50;71.40;;;;;;5053900;28;20462;-30
2023/04/24 02:03:18;;;;;;;0.60;0.60;;;;;;;;;;5053301;28;20057;-30
2023/04/24 02:05:45;;;;;;;0.50;0.50;;;20.20;71.80;;;;;;5053186;28;20053;-30
2023/04/24 02:08:11;;;;;;;2.38;0.50;;;19.10;71.30;;;;;;5070279;28;20045;-29
2023/04/24 02:10:38;;;;;;;0.68;0.60;;;;;;;;;;5073442;28;20044;-30
2023/04/24 02:13:05;;;;;;;0.50;0.50;;;19.20;71.80;;;;;;5073500;28;20048;-30
2023/04/24 02:15:33;;;;;;;0.70;0.70;;;18.90;71.10;;;;;;5073728;28;20061;-30
2023/04/24 02:18:00;;;;;;;0.40;0.40;;;19.20;72.20;;;;;;5073196;28;20408;-30
2023/04/24 02:20:27;;;;;;;0.73;0.65;;;19.20;59.40;;;;;;5061697;28;20120;-30
2023/04/24 02:22:53;;;;;;;0.50;0.50;;;18.40;71.90;;;;;;5059691;28;20045;-30
2023/04/24 02:25:20;;;;;;;0.43;0.43;;;19.10;71.40;;;;;;5073073;28;20040;-29
2023/04/24 02:27:47;;;;;;;0.60;0.60;;;19.80;70.70;;;;;;5073013;28;20059;-30
2023/04/24 02:30:14;;;;;;;0.60;0.60;;;18.90;71.30;;;;;;5073022;28;20112;-30
2023/04/24 02:32:42;;;;;;;0.50;0.50;;;19.30;56.00;;;;;;5072996;28;20051;-30
2023/04/24 02:35:09;;;;;;;0.63;0.60;;;18.40;52.30;;;;;;5061751;28;20416;-30
2023/04/24 02:37:36;;;;;;;0.60;0.60;;;19.10;72.30;;;;;;5052158;28;20103;-30
2023/04/24 02:40:03;;;;;;;0.93;0.60;;;;;;;;;;5052791;28;20484;-31
2023/04/24 02:42:30;;;;;;;0.70;0.70;;;19.00;66.50;;;;;;5052607;28;20049;-30
2023/04/24 02:44:57;;;;;;;0.60;0.60;;;;;;;;;;5052742;28;20055;-31
2023/04/24 02:47:25;;;;;;;0.60;0.60;;;;;;;;;;5052525;28;20049;-30
2023/04/24 02:49:53;;;;;;;0.60;0.60;;;19.40;61.00;;;;;;5052519;28;20051;-30
2023/04/24 02:52:19;;;;;;;0.68;0.68;;;19.00;57.90;;;;;;5052317;28;20410;-30
2023/04/24 02:54:46;;;;;;;0.60;0.60;;;18.50;71.50;;;;;;5052830;28;20053;-29
2023/04/24 02:57:13;;;;;;;0.70;0.70;;;;;;;;;;5051701;28;20041;-29
2023/04/24 02:59:40;;;;;;;0.73;0.73;;;;;;;;;;5052430;28;20055;-30
2023/04/24 03:02:07;;;;;;;0.70;0.70;;;;;;;;;;5052224;28;20051;-30
2023/04/24 03:04:34;;;;;;;0.73;0.73;;;19.20;64.20;;;;;;5052236;28;20049;-30
2023/04/24 03:07:02;;;;;;;0.60;0.60;;;19.20;68.30;;;;;;5052509;28;20065;-29
2023/04/24 03:09:29;;;;;;;0.70;0.70;;;18.70;71.10;;;;;;5052200;28;20049;-30
2023/04/24 03:11:56;;;;;;;0.65;0.63;;;18.40;72.00;;;;;;5052465;28;20049;-29
2023/04/24 03:14:23;;;;;;;1.13;0.60;;;18.40;71.00;;;;;;5052217;28;20053;-30
2023/04/24 03:16:50;;;;;;;0.60;0.60;;;;;;;;;;5051756;28;20053;-29
2023/04/24 03:19:16;;;;;;;0.70;0.70;;;18.70;62.50;;;;;;5031963;28;20413;-29
2023/04/24 03:21:43;;;;;;;0.73;0.60;;;;;;;;;;5032529;28;20052;-29
2023/04/24 03:24:11;;;;;;;0.65;0.65;;;18.90;52.40;;;;;;5066196;28;20064;-31
2023/04/24 03:26:39;;;;;;;0.60;0.60;;;;;;;;;;5072084;28;20048;-31
2023/04/24 03:29:06;;;;;;;0.60;0.60;;;;;;;;;;5071853;28;20044;-30
2023/04/24 03:31:33;;;;;;;0.60;0.60;;;;;;;;;;5072208;28;20135;-30
2023/04/24 03:33:59;;;;;;;0.60;0.60;;;19.50;72.10;;;;;;5051183;28;20048;-29
2023/04/24 03:36:27;;;;;;;0.70;0.70;;;19.00;71.50;;;;;;5051463;28;20073;-29
2023/04/24 03:38:54;;;;;;;0.75;0.75;;;18.40;71.40;;;;;;5051626;28;20049;-29
2023/04/24 03:41:22;;;;;;;0.70;0.70;;;18.80;52.30;;;;;;5052148;28;20049;-30
2023/04/24 03:43:49;;;;;;;1.65;0.73;;;19.30;63.30;;;;;;5051444;28;20048;-30
2023/04/24 03:46:16;;;;;;;0.70;0.70;;;18.80;72.10;;;;;;5051772;28;20048;-30
2023/04/24 03:48:42;;;;;;;1.13;0.80;;;18.90;72.30;;;;;;5051569;28;20063;-30
2023/04/24 03:51:09;;;;;;;0.85;0.70;;;;;;;;;;5051692;28;20075;-30
2023/04/24 03:53:36;;;;;;;1.15;0.77;;;18.60;60.50;;;;;;5051806;28;20416;-30
2023/04/24 03:56:03;;;;;;;0.88;0.82;;;18.80;71.40;;;;;;5051501;28;20045;-30
2023/04/24 03:58:31;;;;;;;0.75;0.75;;;18.90;61.00;;;;;;5051579;28;20048;-30
2023/04/24 04:00:58;;;;;;;0.60;0.60;;;19.00;57.40;;;;;;5051417;28;20400;-30
2023/04/24 04:03:25;;;;;;;1.25;0.82;;;18.60;71.40;;;;;;5051663;28;20049;-30
2023/04/24 04:05:52;;;;;;;0.93;0.80;;;;;;;;;;5051388;28;20512;-30
2023/04/24 04:08:19;;;;;;;0.60;0.60;;;18.70;71.80;;;;;;5053352;28;20049;-29
2023/04/24 04:10:46;;;;;;;0.60;0.60;;;;;;;;;;5055382;28;20048;-30
2023/04/24 04:13:13;;;;;;;0.50;0.50;;;18.40;61.40;;;;;;5055419;28;20057;-29
2023/04/24 04:15:41;;;;;;;0.63;0.63;;;18.70;52.30;;;;;;5055568;28;20049;-31
2023/04/24 04:18:08;;;;;;;0.80;0.80;;;;;;;;;;5055446;28;20055;-31
2023/04/24 04:20:35;;;;;;;0.57;0.57;;;18.90;71.80;;;;;;5055585;28;20144;-29
2023/04/24 04:23:01;;;;;;;0.60;0.60;;;17.90;71.10;;;;;;5063054;28;20074;-29
2023/04/24 04:25:28;;;;;;;0.50;0.50;;;;;;;;;;5057555;28;20059;-30
2023/04/24 04:27:57;;;;;;;0.70;0.70;;;;;;;;;;5055219;28;20063;-29
2023/04/24 04:30:25;;;;;;;0.70;0.70;;;;;;;;;;5055440;28;20044;-30
2023/04/24 04:32:53;;;;;;;0.60;0.60;;;18.70;52.40;;;;;;5055063;28;20049;-30
2023/04/24 04:35:20;;;;;;;0.60;0.60;;;19.00;72.10;;;;;;5055171;28;20045;-29
2023/04/24 04:37:47;;;;;;;0.50;0.50;;;18.30;54.80;;;;;;5054708;28;20053;-30
2023/04/24 04:40:13;;;;;;;0.73;0.73;;;18.00;71.40;;;;;;5054798;28;20053;-30
2023/04/24 04:42:40;;;;;;;1.55;0.70;;;18.40;71.70;;;;;;5054958;28;20052;-29
2023/04/24 04:45:11;;;;;;;0.88;0.73;;;18.60;52.30;;;;;;5055108;28;20072;-30
2023/04/24 04:47:39;;;;;;;0.73;0.73;;;;;;;;;;5055075;28;20045;-30
2023/04/24 04:50:08;;;;;;;0.82;0.82;;;18.80;71.50;;;;;;5055101;28;20076;-29
2023/04/24 04:52:35;;;;;;;0.70;0.70;;;;;;;;;;5054967;28;20048;-29
2023/04/24 04:55:02;;;;;;;0.70;0.70;;;;;;;;;;5054841;28;20065;-30
2023/04/24 04:57:30;;;;;;;0.70;0.70;;;19.00;61.20;;;;;;5055041;28;20094;-30
2023/04/24 04:59:56;;;;;;;0.55;0.55;;;19.60;72.00;;;;;;5054864;28;20508;-30
2023/04/24 05:02:23;;;;;;;0.80;0.80;;;;;;;;;;5054597;28;20045;-31
2023/04/24 05:04:50;;;;;;;0.82;0.73;;;18.90;71.80;;;;;;5054774;28;20053;-30
2023/04/24 05:07:18;;;;;;;0.75;0.75;;;18.90;72.60;;;;;;5054390;28;20073;-29
2023/04/24 05:09:45;;;;;;;0.77;0.77;;;19.00;72.00;;;;;;5054417;28;20059;-30
2023/04/24 05:12:12;;;;;;;0.70;0.70;;;19.00;55.90;;;;;;5054652;28;20055;-30
2023/04/24 05:14:38;;;;;;;0.77;0.70;;;18.00;71.30;;;;;;5054512;28;20491;-30
2023/04/24 05:17:05;;;;;;;1.23;0.73;;;;;;;;;;5054209;28;20063;-29
2023/04/24 05:19:35;;;;;;;0.70;0.70;;;19.20;63.60;;;;;;5057573;28;20063;-30
2023/04/24 05:22:04;;;;;;;0.80;0.80;;;;;;;;;;5056258;28;20052;-30
2023/04/24 05:24:32;;;;;;;0.65;0.65;;;19.00;66.70;;;;;;5034403;28;20049;-30
2023/04/24 05:26:59;;;;;;;0.80;0.80;;;17.90;63.70;;;;;;5034475;28;20128;-30
2023/04/24 05:29:26;;;;;;;1.05;0.85;;;18.50;71.50;;;;;;5034426;28;20065;-30
2023/04/24 05:31:52;;;;;;;0.70;0.70;;;18.60;66.20;;;;;;5052018;28;20110;-30
2023/04/24 05:34:19;;;;;;;1.00;0.80;;;17.20;71.10;;;;;;5054187;28;20075;-30
2023/04/24 05:36:46;;;;;;;0.70;0.70;;;18.00;72.10;;;;;;5053467;28;20049;-29
2023/04/24 05:39:12;;;;;;;3.05;0.80;;;18.60;60.10;;;;;;5054227;28;20060;-30
2023/04/24 05:41:40;;;;;;;0.70;0.55;;;18.40;71.50;;;;;;5053957;28;20047;-29
2023/04/24 05:44:07;;;;;;;0.80;0.73;;;18.80;72.00;;;;;;5053824;28;20049;-29
2023/04/24 05:46:34;;;;;;;0.60;0.60;;;18.60;72.00;;;;;;5054205;28;20051;-30
2023/04/24 05:49:01;;;;;;;0.70;0.70;;;;;;;;;;5053557;28;20052;-30
2023/04/24 05:51:28;;;;;;;0.80;0.80;;;18.40;72.40;;;;;;5053429;28;20049;-29
2023/04/24 05:53:55;;;;;;;0.60;0.60;;;;;;;;;;5053515;28;20048;-30
2023/04/24 05:56:22;;;;;;;0.85;0.70;;;17.60;71.10;;;;;;5053842;28;20135;-30
2023/04/24 05:58:50;;;;;;;0.60;0.60;;;18.40;52.40;;;;;;5053588;28;20059;-29
2023/04/24 06:01:16;;;;;;;0.88;0.70;;;17.60;71.90;;;;;;5053912;28;20049;-30
2023/04/24 06:03:44;;;;;;;0.60;0.60;;;;;;;;;;5053266;28;20044;-30
2023/04/24 06:06:10;;;;;;;2.00;0.88;;;18.60;71.50;;;;;;5044551;28;20049;-29
2023/04/24 06:08:37;;;;;;;0.60;0.60;;;18.50;71.90;;;;;;5042002;28;20052;-30
2023/04/24 06:11:04;;;;;;;0.68;0.68;;;18.30;62.70;;;;;;5043144;28;20481;-29
2023/04/24 06:13:31;;;;;;;0.65;0.60;;;18.70;71.90;;;;;;5036670;28;20050;-30
2023/04/24 06:15:59;;;;;;;0.80;0.80;;;18.40;52.30;;;;;;5042048;28;20416;-31
2023/04/24 06:18:26;;;;;;;0.82;0.70;;;;;;;;;;5041169;28;20055;-30
2023/04/24 06:20:52;;;;;;;0.73;0.73;;;18.10;71.80;;;;;;5049457;28;20131;-30
2023/04/24 06:23:19;;;;;;;0.75;0.70;;;18.50;71.90;;;;;;5058067;28;20452;-29
2023/04/24 06:25:46;;;;;;;0.70;0.70;;;;;;;;;;5047580;28;20053;-31
2023/04/24 06:28:13;;;;;;;0.68;0.68;;;18.80;71.80;;;;;;5051811;28;20066;-29
2023/04/24 06:30:40;;;;;;;0.73;0.73;;;19.30;72.40;;;;;;5052834;28;20074;-30
2023/04/24 06:33:08;;;;;;;0.55;0.55;;;18.80;72.20;;;;;;5047624;28;20041;-29
2023/04/24 06:35:35;;;;;;;0.55;0.50;;;18.20;71.40;;;;;;5039384;28;20567;-30
2023/04/24 06:38:02;;;;;;;0.50;0.50;;;18.30;64.40;;;;;;5051066;28;20045;-29
2023/04/24 06:40:29;;;;;;;0.47;0.47;;;;;;;;;;5049710;28;20053;-30
2023/04/24 06:42:57;;;;;;;0.50;0.50;;;;;;;;;;5044034;28;20080;-30
2023/04/24 06:45:24;;;;;;;0.70;0.50;;;;;;;;;;5052052;28;20552;-30
2023/04/24 06:47:51;;;;;;;0.65;0.50;;;19.20;71.30;;;;;;5032806;28;20053;-29
2023/04/24 06:50:19;;;;;;;0.40;0.40;;;19.20;71.30;;;;;;5033211;28;20387;-30
2023/04/24 06:52:46;;;;;;;0.40;0.40;;;18.90;71.40;;;;;;5032789;28;20049;-29
2023/04/24 06:55:15;;;;;;;2.10;0.50;;;;;;;;;;5041623;28;20064;-30
2023/04/24 06:57:41;;;;;;;0.43;0.43;;;19.30;70.70;;;;;;5052226;28;20048;-29
2023/04/24 07:00:10;;;;;;;0.40;0.40;;;20.60;71.30;;;;;;5052778;28;20041;-29
2023/04/24 07:02:37;;;;;;;1.40;0.50;;;19.60;64.40;;;;;;5052661;28;20052;-30
2023/04/24 07:05:04;;;;;;;1.83;0.50;;;19.60;67.10;;;;;;5052500;28;20103;-30
2023/04/24 07:07:32;;;;;;;0.52;0.52;;;20.00;70.40;;;;;;5052650;28;20081;-30
2023/04/24 07:09:59;;;;;;;0.40;0.40;;;21.00;58.40;;;;;;5052161;28;20045;-30
2023/04/24 07:12:26;;;;;;;0.30;0.30;;;20.20;56.40;;;;;;5051902;28;20409;-30
2023/04/24 07:14:52;;;;;;;0.55;0.40;;;20.00;70.30;;;;;;5042339;28;20053;-29
2023/04/24 07:17:19;;;;;;;0.40;0.40;;;;;;;;;;5032628;28;20132;-30
2023/04/24 07:19:47;;;;;;;0.40;0.40;;;19.60;69.30;;;;;;5049051;28;20055;-29
2023/04/24 07:22:16;;;;;;;0.40;0.40;;;20.10;59.70;;;;;;5053137;28;20059;-30
2023/04/24 07:24:44;;;;;;;0.47;0.40;;;19.40;70.00;;;;;;5052052;28;20053;-30
2023/04/24 07:27:11;;;;;;;0.70;0.40;;;20.70;69.60;;;;;;5052303;28;20051;-30
2023/04/24 07:29:39;;;;;;;0.40;0.40;;;;;;;;;;5052324;28;20048;-31
2023/04/24 07:32:05;;;;;;;0.38;0.38;;;20.30;70.00;;;;;;5034562;28;20597;-30
2023/04/24 07:34:32;;;;;;;1.23;0.45;;;20.80;53.30;;;;;;5031988;28;20462;-30
2023/04/24 07:36:59;;;;;;;0.40;0.40;;;20.90;55.40;;;;;;5041554;28;20045;-30
2023/04/24 07:39:26;;;;;;;0.40;0.40;;;20.20;68.90;;;;;;5051966;28;20132;-30
2023/04/24 07:41:54;;;;;;;0.40;0.40;;;21.00;62.70;;;;;;5052041;28;20052;-30
2023/04/24 07:44:20;;;;;;;0.30;0.30;;;21.10;59.70;;;;;;5051811;28;20063;-30
2023/04/24 07:46:47;;;;;;;0.40;0.40;;;20.10;68.90;;;;;;5051876;28;20413;-30
2023/04/24 07:49:15;;;;;;;0.57;0.40;;;;;;;;;;5051626;28;20508;-31
2023/04/24 07:51:41;;;;;;;0.30;0.30;;;20.20;69.20;;;;;;5051741;28;20052;-30
2023/04/24 07:54:08;;;;;;;0.40;0.40;;;20.70;69.00;;;;;;5051614;28;20594;-29
2023/04/24 07:56:38;;;;;;;0.60;0.50;;;20.70;58.80;;;;;;5051967;28;20052;-30
2023/04/24 07:59:06;;;;;;;0.50;0.32;;;20.70;53.70;;;;;;5051726;28;20095;-30
2023/04/24 08:01:33;;;;;;;0.20;0.20;;;;;;;;;;5051740;28;20067;-30
2023/04/24 08:04:00;;;;;;;0.50;0.50;;;19.50;67.80;;;;;;5051626;28;20067;-29
2023/04/24 08:06:29;;;;;;;0.50;0.50;;;21.50;68.80;;;;;;5051121;28;20505;-30
2023/04/24 08:08:56;;;;;;;0.30;0.30;;;20.60;56.20;;;;;;5049633;28;20049;-30
2023/04/24 08:11:23;;;;;;;0.20;0.20;;;;;;;;;;5051242;28;20052;-31
2023/04/24 08:13:50;;;;;;;0.20;0.20;;;;;;;;;;5047538;28;20049;-30
2023/04/24 08:16:18;;;;;;;0.30;0.30;;;20.70;50.10;;;;;;5051010;28;20045;-30
2023/04/24 08:18:46;;;;;;;0.52;0.30;;;;;;;;;;5049661;28;20131;-30
2023/04/24 08:21:16;;;;;;;0.30;0.30;;;20.60;68.20;;;;;;5051195;28;20390;-30
2023/04/24 08:23:43;;;;;;;0.30;0.30;;;21.00;65.70;;;;;;5050267;28;20053;-30
2023/04/24 08:26:10;;;;;;;0.30;0.30;;;20.30;63.50;;;;;;5051204;28;20044;-30
2023/04/24 08:28:37;;;;;;;0.40;0.30;;;20.70;68.40;;;;;;5048101;28;20694;-30
2023/04/24 08:31:04;;;;;;;0.40;0.40;;;20.70;58.60;;;;;;5051038;28;20041;-30
2023/04/24 08:33:34;;;;;;;1.83;0.40;;;21.20;69.60;;;;;;5048295;28;20053;-30
2023/04/24 08:36:01;;;;;;;0.32;0.30;;;19.90;68.80;;;;;;5042833;28;20049;-30
2023/04/24 08:38:27;;;;;;;0.52;0.40;;;20.40;69.20;;;;;;5048295;28;20037;-30
2023/04/24 08:40:54;;;;;;;0.28;0.28;;;21.00;54.40;;;;;;5051302;28;20045;-30
2023/04/24 08:43:21;;;;;;;0.40;0.40;;;20.50;50.10;;;;;;5051233;28;20045;-30
2023/04/24 08:45:48;;;;;;;1.02;0.50;;;20.90;53.30;;;;;;5058342;28;20049;-30
2023/04/24 08:48:15;;;;;;;0.30;0.30;;;21.60;68.80;;;;;;5056448;28;20410;-30
2023/04/24 08:50:44;;;;;;;0.50;0.40;;;20.80;68.50;;;;;;5051205;28;20056;-30
2023/04/24 08:53:11;;;;;;;0.30;0.30;;;20.50;64.70;;;;;;5051491;28;20049;-30
2023/04/24 08:55:38;;;;;;;0.40;0.40;;;20.70;68.50;;;;;;5047920;28;20053;-30
2023/04/24 08:58:05;;;;;;;0.30;0.30;;;;;;;;;;5035175;28;20093;-31
2023/04/24 09:00:31;;;;;;;0.40;0.40;;;20.30;68.50;;;;;;5034951;28;20049;-30
2023/04/24 09:02:58;;;;;;;0.20;0.20;;;20.50;69.00;;;;;;5034795;28;20049;-30
2023/04/24 09:05:25;;;;;;;0.40;0.40;;;19.70;54.90;;;;;;5033511;28;20414;-30
2023/04/24 09:07:55;;;;;;;0.50;0.50;;;20.10;68.80;;;;;;5035094;28;20053;-30
2023/04/24 09:10:22;;;;;;;0.52;0.40;;;19.80;69.20;;;;;;5041216;28;20165;-30
2023/04/24 09:12:49;;;;;;;0.80;0.50;;;;;;;;;;5053973;28;20045;-31
2023/04/24 09:15:16;;;;;;;0.30;0.30;;;19.80;69.30;;;;;;5051739;28;20055;-30
2023/04/24 09:17:42;;;;;;;0.40;0.40;;;20.10;69.50;;;;;;5053927;28;20556;-30
2023/04/24 09:20:10;;;;;;;0.40;0.40;;;;;;;;;;5054165;28;20413;-30
2023/04/24 09:22:37;;;;;;;0.95;0.40;;;20.40;68.90;;;;;;5051355;28;20051;-29
2023/04/24 09:25:06;;;;;;;1.52;0.70;;;20.20;56.50;;;;;;5052485;28;20045;-30
2023/04/24 09:27:33;;;;;;;0.50;0.50;;;19.60;68.50;;;;;;5053317;28;20106;-30
2023/04/24 09:30:00;;;;;;;1.00;0.50;;;19.90;53.90;;;;;;5053878;28;20045;-30
2023/04/24 09:32:28;;;;;;;0.57;0.57;;;19.90;54.40;;;;;;5053008;28;20091;-30
2023/04/24 09:35:11;;;;;;;0.75;0.73;;;20.00;69.70;;;;;;5054103;28;20444;-30
2023/04/24 09:37:39;;;;;;;1.17;0.90;;;20.00;69.00;;;;;;5051102;28;20060;-30
2023/04/24 09:40:12;;;;;;;0.70;0.70;;;20.00;69.10;;;;;;5053912;28;20045;-30
2023/04/24 09:42:39;;;;;;;1.02;0.80;;;;;;;;;;5051658;28;20049;-30
2023/04/24 09:45:09;;;;;;;1.13;1.02;;;19.50;56.30;;;;;;5053476;28;20045;-29
2023/04/24 09:47:37;;;;;;;1.38;1.00;;;19.80;50.70;;;;;;5051315;28;20060;-32
2023/04/24 09:50:10;;;;;;;1.00;0.95;;;20.70;70.00;;;;;;5051339;28;20052;-29
2023/04/24 09:52:40;;;;;;;1.23;0.98;;;19.90;70.10;;;;;;5051602;28;20049;-30
2023/04/24 09:55:17;;;;;;;1.33;1.15;;;19.70;50.90;;;;;;5053633;28;20498;-30
2023/04/24 09:57:51;;;;;;;1.42;1.20;;;20.20;69.70;;;;;;5054007;28;20052;-30
2023/04/24 10:00:25;;;;;;;2.70;1.40;;;20.10;69.50;;;;;;5053848;28;20049;-30
2023/04/24 10:02:55;;;;;;;1.50;1.20;;;20.00;69.50;;;;;;5053768;28;20047;-30
2023/04/24 10:05:24;;;;;;;1.48;1.10;;;19.60;51.00;;;;;;5055209;28;20044;-30
2023/04/24 10:07:51;;;;;;;1.77;1.30;;;19.30;55.10;;;;;;5053540;28;20049;-30
2023/04/24 10:10:19;;;;;;;2.78;1.33;;;19.70;70.30;;;;;;5053351;28;20048;-30
2023/04/24 10:12:46;;;;;;;2.33;1.40;;;18.40;68.90;;;;;;5052745;28;20044;-30
2023/04/24 10:15:13;;;;;;;3.55;1.40;;;19.10;69.20;;;;;;5053096;28;20417;-29
2023/04/24 10:17:40;;;;;;;2.47;1.63;;;;;;;;;;5052380;28;20072;-29
2023/04/24 10:20:08;;;;;;;1.70;1.52;;;19.60;51.00;;;;;;5055104;28;20048;-30
2023/04/24 10:22:35;;;;;;;2.13;1.42;;;20.10;70.70;;;;;;5054632;28;20659;-30
2023/04/24 10:25:01;;;;;;;1.48;1.20;;;20.60;57.50;;;;;;5052035;28;20040;-30
2023/04/24 10:27:29;;;;;;;1.92;1.42;;;19.30;61.30;;;;;;5052555;28;20064;-29
2023/04/24 10:29:56;;;;;;;3.80;1.80;;;19.60;70.50;;;;;;5052472;28;20048;-29
2023/04/24 10:32:23;;;;;;;3.15;1.60;;;19.60;52.00;;;;;;5047376;28;20408;-30
2023/04/24 10:34:50;;;;;;;2.78;1.80;;;;;;;;;;5041293;28;20041;-29
2023/04/24 10:37:16;;;;;;;3.10;1.40;;;18.50;69.40;;;;;;5043099;28;20161;-29
2023/04/24 10:39:43;;;;;;;2.58;1.50;;;19.90;70.30;;;;;;5043230;28;20564;-29
2023/04/24 10:42:15;;;;;;;2.75;1.52;;;19.70;58.50;;;;;;5041551;28;20037;-30
2023/04/24 10:44:43;;;;;;;3.05;1.83;;;19.90;60.20;;;;;;5046460;28;20045;-30
2023/04/24 10:47:13;;;;;;;1.95;1.58;;;19.40;56.70;;;;;;5044131;28;20399;-30
2023/04/24 10:49:41;;;;;;;3.42;1.98;;;19.30;58.70;;;;;;5036131;28;20129;-30
2023/04/24 10:52:08;;;;;;;2.40;1.55;;;20.10;69.90;;;;;;5047362;28;20045;-29
2023/04/24 10:54:41;;;;;;;1.90;1.40;;;19.40;62.20;;;;;;5052158;28;20049;-30
2023/04/24 10:57:28;;;;;;;3.95;1.90;;;19.60;51.40;;;;;;5052314;28;20056;-30
2023/04/24 11:00:27;;;;;;;4.68;1.90;;;18.70;69.30;;;;;;5045066;28;20056;-30
2023/04/24 11:02:55;;;;;;;3.25;1.80;;;20.20;70.60;;;;;;5046376;28;20098;-29
2023/04/24 11:05:22;;;;;;;2.90;1.55;;;19.20;70.40;;;;;;5046114;28;20051;-29
2023/04/24 11:08:11;;;;;;;2.33;1.73;;;19.10;70.00;;;;;;5052067;28;20076;-30
2023/04/24 11:10:40;;;;;;;4.03;1.77;;;19.60;70.10;;;;;;5050255;28;20056;-29
2023/04/24 11:13:07;;;;;;;1.85;1.50;;;;;;;;;;5050319;28;20509;-30
2023/04/24 11:15:33;;;;;;;3.05;1.73;;;19.50;69.60;;;;;;5053821;28;20049;-29
2023/04/24 11:18:01;;;;;;;2.95;1.60;;;19.30;58.30;;;;;;5051267;28;20051;-30
2023/04/24 11:20:28;;;;;;;3.17;1.65;;;19.90;69.40;;;;;;5051800;28;20052;-29
2023/04/24 11:22:57;;;;;;;2.83;1.90;;;19.70;51.30;;;;;;5051375;28;20053;-30
2023/04/24 11:25:24;;;;;;;3.40;1.77;;;19.90;69.60;;;;;;5051701;28;20045;-29
2023/04/24 11:27:51;;;;;;;2.60;1.80;;;;;;;;;;5051873;28;20049;-30
2023/04/24 11:30:18;;;;;;;1.88;1.55;;;19.40;69.30;;;;;;5052497;28;20131;-29
2023/04/24 11:32:48;;;;;;;2.70;1.80;;;19.80;70.30;;;;;;5051374;28;20121;-29
2023/04/24 11:35:17;;;;;;;1.92;1.65;;;19.70;70.20;;;;;;5051601;28;20621;-30
2023/04/24 11:37:45;;;;;;;3.00;1.70;;;19.30;57.80;;;;;;5048595;28;20076;-30
2023/04/24 11:40:15;;;;;;;2.35;1.70;;;20.10;69.60;;;;;;5051948;28;20409;-29
2023/04/24 11:42:43;;;;;;;2.33;1.60;;;19.80;51.10;;;;;;5051233;28;20506;-31
2023/04/24 11:45:10;;;;;;;1.80;1.63;;;20.00;70.30;;;;;;5051341;28;20047;-29
2023/04/24 11:47:37;;;;;;;1.77;1.60;;;19.70;69.60;;;;;;5051443;28;20405;-29
2023/04/24 11:50:05;;;;;;;2.97;1.50;;;19.00;50.60;;;;;;5051653;28;20055;-30
2023/04/24 11:52:34;;;;;;;2.97;1.80;;;20.10;55.30;;;;;;5051491;28;20045;-29
2023/04/24 11:55:01;;;;;;;2.53;1.73;;;19.70;69.10;;;;;;5045339;28;20502;-29
2023/04/24 11:57:33;;;;;;;2.50;1.60;;;19.80;69.60;;;;;;5031993;28;20057;-29
2023/04/24 11:59:59;;;;;;;2.80;1.80;;;19.20;69.30;;;;;;5034042;28;20053;-30
2023/04/24 12:02:27;;;;;;;3.60;1.60;;;21.10;51.70;;;;;;5051051;28;20049;-30
2023/04/24 12:04:54;;;;;;;2.40;1.60;;;20.10;69.40;;;;;;5051276;28;20049;-29
2023/04/24 12:07:21;;;;;;;2.28;1.85;;;18.90;50.70;;;;;;5051178;28;20566;-29
2023/04/24 12:09:55;;;;;;;1.92;1.65;;;19.80;70.10;;;;;;5045910;28;20053;-30
2023/04/24 12:12:22;;;;;;;2.00;1.60;;;19.50;69.00;;;;;;5051061;28;20041;-30
2023/04/24 12:14:49;;;;;;;3.13;1.45;;;19.50;69.40;;;;;;5050857;28;20444;-29
2023/04/24 12:17:16;;;;;;;2.35;1.70;;;19.60;69.20;;;;;;5051206;28;20111;-29
2023/04/24 12:19:46;;;;;;;2.30;1.70;;;19.70;51.00;;;;;;5047795;28;20060;-30
2023/04/24 12:22:13;;;;;;;2.83;1.60;;;19.00;52.10;;;;;;5050932;28;20045;-30
2023/04/24 12:25:00;;;;;;;1.83;1.50;;;19.80;69.80;;;;;;5050491;28;20055;-30
2023/04/24 12:27:27;;;;;;;3.08;1.52;;;19.00;63.00;;;;;;5047112;28;20072;-29
2023/04/24 12:29:56;;;;;;;2.10;1.50;;;19.90;69.50;;;;;;5051486;28;20493;-29
2023/04/24 12:32:24;;;;;;;4.10;1.70;;;19.30;51.10;;;;;;5054517;28;20515;-30
2023/04/24 12:34:52;;;;;;;2.35;1.60;;;;;;;;;;5054907;28;20041;-30
2023/04/24 12:37:18;;;;;;;1.73;1.40;;;19.40;69.40;;;;;;5050524;28;20489;-29
2023/04/24 12:40:00;;;;;;;2.28;1.70;;;19.60;51.30;;;;;;5054519;28;20189;-29
2023/04/24 12:42:27;;;;;;;2.97;1.73;;;19.80;69.80;;;;;;5053557;28;20056;-30
2023/04/24 12:44:57;;;;;;;2.33;1.40;;;19.50;51.30;;;;;;5055020;28;20048;-30
2023/04/24 12:47:24;;;;;;;2.22;1.58;;;19.50;57.90;;;;;;5055212;28;20061;-30
2023/04/24 12:49:52;;;;;;;2.15;1.40;;;19.90;61.20;;;;;;5042543;28;20076;-30
2023/04/24 12:52:19;;;;;;;1.95;1.50;;;19.70;69.90;;;;;;5034760;28;20049;-29
2023/04/24 12:54:46;;;;;;;2.33;1.40;;;19.50;59.10;;;;;;5035292;28;20056;-30
2023/04/24 12:57:15;;;;;;;2.15;1.48;;;18.80;69.00;;;;;;5034988;28;20045;-30
2023/04/24 12:59:41;;;;;;;2.30;1.50;;;18.80;62.90;;;;;;5035352;28;20054;-29
2023/04/24 13:02:09;;;;;;;2.65;1.40;;;;;;;;;;5036712;28;20060;-30
2023/04/24 13:04:36;;;;;;;3.10;1.65;;;;;;;;;;5043427;28;20080;-30
2023/04/24 13:07:03;;;;;;;2.60;1.40;;;19.80;69.80;;;;;;5042075;28;20132;-29
2023/04/24 13:09:31;;;;;;;1.75;1.30;;;;;;;;;;5034958;28;20045;-29
2023/04/24 13:11:57;;;;;;;1.80;1.30;;;19.10;69.60;;;;;;5034870;28;20138;-29